< Typhoon 199317 1993 Season Typhoon 199319 >
Typhoon 199318 (DOT)
General InformationTrack Information on Google MapsDetailed Wind InformationList of All Images || Disaster Info.ResourceGoogle EarthGE AnimationAtom FeedGeoJSON
Detalied Best Track (Time Zone = UTC)
Year Month Day Hour Lat. Long. Pressure (hPa) Wind (kt) Class Image Chart
1993 9 19 18 15.5 123.7 1006 0 2 Image Chart
1993 9 20 00 16.5 122.7 1006 0 2 Image Chart
1993 9 20 06 17.4 121.0 1006 0 2 Image Chart
1993 9 20 12 17.7 119.6 1006 0 2 Image Chart
1993 9 20 18 17.8 117.8 1004 0 2 Image Chart
1993 9 21 00 17.9 117.0 1004 0 2 Image Chart
1993 9 21 06 18.0 116.2 1004 0 2 Image Chart
1993 9 21 12 18.0 115.6 1004 0 2 Image Chart
1993 9 21 18 18.0 115.3 1004 0 2 Image Chart
1993 9 22 00 18.0 115.0 1004 0 2 Image Chart
1993 9 22 06 18.0 114.6 1004 0 2 Image Chart
1993 9 22 12 18.1 113.8 1004 0 2 Image Chart
1993 9 22 18 18.1 113.2 1004 0 2 Image Chart
1993 9 23 00 18.2 112.8 1002 0 2 Image Chart
1993 9 23 06 18.3 112.5 1002 0 2 Image Chart
1993 9 23 12 18.4 112.1 1002 0 2 Image Chart
1993 9 23 18 18.4 111.7 1002 0 2 Image Chart
1993 9 24 00 18.5 111.4 1002 0 2 Image Chart
1993 9 24 06 18.7 111.2 1000 0 2 Image Chart
1993 9 24 12 19.0 111.3 998 35 3 Image Chart
1993 9 24 18 19.2 111.5 996 40 3 Image Chart
1993 9 25 00 19.7 111.9 990 45 3 Image Chart
1993 9 25 06 20.1 112.2 980 55 4 Image Chart
1993 9 25 12 20.5 112.4 970 65 5 Image Chart
1993 9 25 18 20.8 112.4 965 70 5 Image Chart
1993 9 26 00 21.0 112.4 965 70 5 Image Chart
1993 9 26 06 21.6 112.4 975 60 4 Image Chart
1993 9 26 12 22.3 112.4 980 55 4 Image Chart
1993 9 26 18 22.8 112.5 990 45 3 Image Chart
1993 9 27 00 23.0 112.5 1004 0 2 Image Chart
1993 9 27 06 23.0 112.5 1006 0 2 Image Chart
Japan Meteorological Agency Best Track Data | Correction Date : 1994-01-10
< Typhoon 199317 1993 Season Typhoon 199319 >

Help